sensor_id;sensor_type;location;lat;lon;timestamp;temperature;humidity
71188;DHT22;58893;53.130;8.158;2022-07-22T00:00:31;21.90;70.50
71188;DHT22;58893;53.130;8.158;2022-07-22T00:02:57;21.90;70.40
71188;DHT22;58893;53.130;8.158;2022-07-22T00:05:22;21.80;70.50
71188;DHT22;58893;53.130;8.158;2022-07-22T00:07:48;21.80;71.00
71188;DHT22;58893;53.130;8.158;2022-07-22T00:10:13;21.80;70.70
71188;DHT22;58893;53.130;8.158;2022-07-22T00:12:39;21.80;72.80
71188;DHT22;58893;53.130;8.158;2022-07-22T00:15:06;21.80;70.80
71188;DHT22;58893;53.130;8.158;2022-07-22T00:17:32;21.80;70.80
71188;DHT22;58893;53.130;8.158;2022-07-22T00:19:58;21.80;71.30
71188;DHT22;58893;53.130;8.158;2022-07-22T00:22:23;21.80;70.90
71188;DHT22;58893;53.130;8.158;2022-07-22T00:24:49;21.80;71.40
71188;DHT22;58893;53.130;8.158;2022-07-22T00:27:15;21.80;70.60
71188;DHT22;58893;53.130;8.158;2022-07-22T00:29:40;21.80;70.50
71188;DHT22;58893;53.130;8.158;2022-07-22T00:32:06;21.80;70.40
71188;DHT22;58893;53.130;8.158;2022-07-22T00:34:32;21.80;70.20
71188;DHT22;58893;53.130;8.158;2022-07-22T00:36:58;21.80;70.30
71188;DHT22;58893;53.130;8.158;2022-07-22T00:39:23;21.80;70.20
71188;DHT22;58893;53.130;8.158;2022-07-22T00:41:49;21.80;70.50
71188;DHT22;58893;53.130;8.158;2022-07-22T00:44:15;21.80;71.80
71188;DHT22;58893;53.130;8.158;2022-07-22T00:46:41;21.80;69.90
71188;DHT22;58893;53.130;8.158;2022-07-22T00:49:08;21.70;69.40
71188;DHT22;58893;53.130;8.158;2022-07-22T00:51:34;21.70;69.40
71188;DHT22;58893;53.130;8.158;2022-07-22T00:54:01;21.70;69.30
71188;DHT22;58893;53.130;8.158;2022-07-22T00:56:28;21.70;69.40
71188;DHT22;58893;53.130;8.158;2022-07-22T00:58:56;21.70;69.60
71188;DHT22;58893;53.130;8.158;2022-07-22T01:01:22;21.60;69.50
71188;DHT22;58893;53.130;8.158;2022-07-22T01:03:47;21.60;69.70
71188;DHT22;58893;53.130;8.158;2022-07-22T01:06:14;21.60;70.40
71188;DHT22;58893;53.130;8.158;2022-07-22T01:08:39;21.60;69.60
71188;DHT22;58893;53.130;8.158;2022-07-22T01:11:10;21.60;69.60
71188;DHT22;58893;53.130;8.158;2022-07-22T01:13:36;21.60;69.60
71188;DHT22;58893;53.130;8.158;2022-07-22T01:16:03;21.60;69.70
71188;DHT22;58893;53.130;8.158;2022-07-22T01:18:29;21.60;69.70
71188;DHT22;58893;53.130;8.158;2022-07-22T01:20:55;21.60;69.80
71188;DHT22;58893;53.130;8.158;2022-07-22T01:23:21;21.60;69.70
71188;DHT22;58893;53.130;8.158;2022-07-22T01:25:46;21.60;69.80
71188;DHT22;58893;53.130;8.158;2022-07-22T01:28:12;21.60;69.80
71188;DHT22;58893;53.130;8.158;2022-07-22T01:30:38;21.60;69.60
71188;DHT22;58893;53.130;8.158;2022-07-22T01:33:04;21.60;69.40
71188;DHT22;58893;53.130;8.158;2022-07-22T01:35:29;21.60;69.40
71188;DHT22;58893;53.130;8.158;2022-07-22T01:37:55;21.60;69.40
71188;DHT22;58893;53.130;8.158;2022-07-22T01:40:20;21.60;69.30
71188;DHT22;58893;53.130;8.158;2022-07-22T01:42:46;21.50;69.30
71188;DHT22;58893;53.130;8.158;2022-07-22T01:45:11;21.50;69.40
71188;DHT22;58893;53.130;8.158;2022-07-22T01:47:37;21.50;69.40
71188;DHT22;58893;53.130;8.158;2022-07-22T01:50:05;21.50;69.30
71188;DHT22;58893;53.130;8.158;2022-07-22T01:52:31;21.50;69.20
71188;DHT22;58893;53.130;8.158;2022-07-22T01:54:57;21.50;69.30
71188;DHT22;58893;53.130;8.158;2022-07-22T01:57:22;21.50;69.70
71188;DHT22;58893;53.130;8.158;2022-07-22T01:59:48;21.50;69.50
71188;DHT22;58893;53.130;8.158;2022-07-22T02:02:13;21.50;69.50
71188;DHT22;58893;53.130;8.158;2022-07-22T02:04:39;21.50;69.40
71188;DHT22;58893;53.130;8.158;2022-07-22T02:07:05;21.50;69.40
71188;DHT22;58893;53.130;8.158;2022-07-22T02:09:30;21.50;69.40
71188;DHT22;58893;53.130;8.158;2022-07-22T02:11:56;21.50;69.40
71188;DHT22;58893;53.130;8.158;2022-07-22T02:14:21;21.50;69.40
71188;DHT22;58893;53.130;8.158;2022-07-22T02:16:47;21.50;69.30
71188;DHT22;58893;53.130;8.158;2022-07-22T02:19:13;21.50;69.30
71188;DHT22;58893;53.130;8.158;2022-07-22T02:21:38;21.40;69.30
71188;DHT22;58893;53.130;8.158;2022-07-22T02:24:04;21.40;69.40
71188;DHT22;58893;53.130;8.158;2022-07-22T02:26:30;21.40;69.40
71188;DHT22;58893;53.130;8.158;2022-07-22T02:31:22;21.40;68.70
71188;DHT22;58893;53.130;8.158;2022-07-22T02:33:47;21.40;69.30
71188;DHT22;58893;53.130;8.158;2022-07-22T02:36:13;21.40;69.30
71188;DHT22;58893;53.130;8.158;2022-07-22T02:38:39;21.40;69.90
71188;DHT22;58893;53.130;8.158;2022-07-22T02:41:04;21.40;69.20
71188;DHT22;58893;53.130;8.158;2022-07-22T02:43:30;21.40;69.10
71188;DHT22;58893;53.130;8.158;2022-07-22T02:45:56;21.40;69.00
71188;DHT22;58893;53.130;8.158;2022-07-22T02:48:21;21.40;69.90
71188;DHT22;58893;53.130;8.158;2022-07-22T02:50:47;21.40;69.20
71188;DHT22;58893;53.130;8.158;2022-07-22T02:53:14;21.30;69.00
71188;DHT22;58893;53.130;8.158;2022-07-22T02:55:40;21.30;69.10
71188;DHT22;58893;53.130;8.158;2022-07-22T02:58:07;21.30;69.10
71188;DHT22;58893;53.130;8.158;2022-07-22T03:00:33;21.30;69.10
71188;DHT22;58893;53.130;8.158;2022-07-22T03:02:59;21.30;69.20
71188;DHT22;58893;53.130;8.158;2022-07-22T03:05:25;21.30;69.80
71188;DHT22;58893;53.130;8.158;2022-07-22T03:07:50;21.30;69.20
71188;DHT22;58893;53.130;8.158;2022-07-22T03:10:16;21.30;69.00
71188;DHT22;58893;53.130;8.158;2022-07-22T03:12:41;21.30;69.00
71188;DHT22;58893;53.130;8.158;2022-07-22T03:15:07;21.30;69.10
71188;DHT22;58893;53.130;8.158;2022-07-22T03:17:34;21.30;69.20
71188;DHT22;58893;53.130;8.158;2022-07-22T03:20:02;21.30;69.30
71188;DHT22;58893;53.130;8.158;2022-07-22T03:22:28;21.20;69.10
71188;DHT22;58893;53.130;8.158;2022-07-22T03:24:54;21.20;69.10
71188;DHT22;58893;53.130;8.158;2022-07-22T03:27:19;21.20;69.10
71188;DHT22;58893;53.130;8.158;2022-07-22T03:29:45;21.20;69.00
71188;DHT22;58893;53.130;8.158;2022-07-22T03:32:10;21.20;68.80
71188;DHT22;58893;53.130;8.158;2022-07-22T03:34:37;21.20;68.90
71188;DHT22;58893;53.130;8.158;2022-07-22T03:37:03;21.20;68.90
71188;DHT22;58893;53.130;8.158;2022-07-22T03:39:29;21.20;68.90
71188;DHT22;58893;53.130;8.158;2022-07-22T03:41:55;21.20;68.80
71188;DHT22;58893;53.130;8.158;2022-07-22T03:44:20;21.20;68.90
71188;DHT22;58893;53.130;8.158;2022-07-22T03:46:46;21.10;68.80
71188;DHT22;58893;53.130;8.158;2022-07-22T03:49:11;21.10;68.70
71188;DHT22;58893;53.130;8.158;2022-07-22T03:51:37;21.10;68.70
71188;DHT22;58893;53.130;8.158;2022-07-22T03:54:03;21.10;68.80
71188;DHT22;58893;53.130;8.158;2022-07-22T03:56:29;21.10;68.80
71188;DHT22;58893;53.130;8.158;2022-07-22T03:58:54;21.10;68.90
71188;DHT22;58893;53.130;8.158;2022-07-22T04:01:20;21.10;69.60
71188;DHT22;58893;53.130;8.158;2022-07-22T04:03:45;21.10;69.00
71188;DHT22;58893;53.130;8.158;2022-07-22T04:06:11;21.10;69.20
71188;DHT22;58893;53.130;8.158;2022-07-22T04:08:37;21.10;69.00
71188;DHT22;58893;53.130;8.158;2022-07-22T04:11:02;21.10;69.10
71188;DHT22;58893;53.130;8.158;2022-07-22T04:13:28;21.10;69.20
71188;DHT22;58893;53.130;8.158;2022-07-22T04:15:54;21.10;69.30
71188;DHT22;58893;53.130;8.158;2022-07-22T04:18:19;21.10;69.30
71188;DHT22;58893;53.130;8.158;2022-07-22T04:20:45;21.10;69.30
71188;DHT22;58893;53.130;8.158;2022-07-22T04:23:12;21.10;69.40
71188;DHT22;58893;53.130;8.158;2022-07-22T04:25:38;21.10;70.10
71188;DHT22;58893;53.130;8.158;2022-07-22T04:28:04;21.10;69.50
71188;DHT22;58893;53.130;8.158;2022-07-22T04:30:29;21.10;69.50
71188;DHT22;58893;53.130;8.158;2022-07-22T04:32:55;21.10;69.50
71188;DHT22;58893;53.130;8.158;2022-07-22T04:35:21;21.10;69.50
71188;DHT22;58893;53.130;8.158;2022-07-22T04:37:46;21.10;69.70
71188;DHT22;58893;53.130;8.158;2022-07-22T04:40:12;21.10;69.70
71188;DHT22;58893;53.130;8.158;2022-07-22T04:42:38;21.10;69.80
71188;DHT22;58893;53.130;8.158;2022-07-22T04:45:04;21.10;69.60
71188;DHT22;58893;53.130;8.158;2022-07-22T04:47:29;21.10;69.60
71188;DHT22;58893;53.130;8.158;2022-07-22T04:49:55;21.10;69.60
71188;DHT22;58893;53.130;8.158;2022-07-22T04:52:21;21.10;69.70
71188;DHT22;58893;53.130;8.158;2022-07-22T04:54:46;21.10;69.80
71188;DHT22;58893;53.130;8.158;2022-07-22T04:57:12;21.10;69.80
71188;DHT22;58893;53.130;8.158;2022-07-22T04:59:37;21.10;69.80
71188;DHT22;58893;53.130;8.158;2022-07-22T05:02:03;21.10;69.80
71188;DHT22;58893;53.130;8.158;2022-07-22T05:04:29;21.10;69.80
71188;DHT22;58893;53.130;8.158;2022-07-22T05:06:55;21.10;69.80
71188;DHT22;58893;53.130;8.158;2022-07-22T05:09:21;21.10;69.70
71188;DHT22;58893;53.130;8.158;2022-07-22T05:11:46;21.10;69.70
71188;DHT22;58893;53.130;8.158;2022-07-22T05:14:12;21.10;69.60
71188;DHT22;58893;53.130;8.158;2022-07-22T05:16:38;21.10;69.60
71188;DHT22;58893;53.130;8.158;2022-07-22T05:19:04;21.10;69.60
71188;DHT22;58893;53.130;8.158;2022-07-22T05:23:56;21.10;70.80
71188;DHT22;58893;53.130;8.158;2022-07-22T05:26:22;21.10;69.70
71188;DHT22;58893;53.130;8.158;2022-07-22T05:28:48;21.10;69.70
71188;DHT22;58893;53.130;8.158;2022-07-22T05:31:14;21.10;69.70
71188;DHT22;58893;53.130;8.158;2022-07-22T05:33:39;21.10;69.80
71188;DHT22;58893;53.130;8.158;2022-07-22T05:36:05;21.10;69.50
71188;DHT22;58893;53.130;8.158;2022-07-22T05:38:34;21.10;69.40
71188;DHT22;58893;53.130;8.158;2022-07-22T05:41:00;21.10;69.30
71188;DHT22;58893;53.130;8.158;2022-07-22T05:43:26;21.10;69.20
71188;DHT22;58893;53.130;8.158;2022-07-22T05:45:52;21.10;69.00
71188;DHT22;58893;53.130;8.158;2022-07-22T05:48:17;21.10;69.50
71188;DHT22;58893;53.130;8.158;2022-07-22T05:50:43;21.20;68.80
71188;DHT22;58893;53.130;8.158;2022-07-22T05:53:09;21.20;68.60
71188;DHT22;58893;53.130;8.158;2022-07-22T05:55:34;21.20;68.40
71188;DHT22;58893;53.130;8.158;2022-07-22T05:58:00;21.20;68.40
71188;DHT22;58893;53.130;8.158;2022-07-22T06:00:26;21.20;68.30
71188;DHT22;58893;53.130;8.158;2022-07-22T06:02:51;21.20;68.00
71188;DHT22;58893;53.130;8.158;2022-07-22T06:05:17;21.20;67.90
71188;DHT22;58893;53.130;8.158;2022-07-22T06:07:42;21.20;67.60
71188;DHT22;58893;53.130;8.158;2022-07-22T06:10:08;21.20;67.40
71188;DHT22;58893;53.130;8.158;2022-07-22T06:12:34;21.20;67.20
71188;DHT22;58893;53.130;8.158;2022-07-22T06:15:00;21.20;66.80
71188;DHT22;58893;53.130;8.158;2022-07-22T06:17:25;21.20;66.40
71188;DHT22;58893;53.130;8.158;2022-07-22T06:19:51;21.20;66.30
71188;DHT22;58893;53.130;8.158;2022-07-22T06:22:16;21.20;65.50
71188;DHT22;58893;53.130;8.158;2022-07-22T06:24:43;21.20;65.50
71188;DHT22;58893;53.130;8.158;2022-07-22T06:27:09;21.20;64.80
71188;DHT22;58893;53.130;8.158;2022-07-22T06:29:35;21.20;64.60
71188;DHT22;58893;53.130;8.158;2022-07-22T06:32:01;21.10;64.30
71188;DHT22;58893;53.130;8.158;2022-07-22T06:34:26;21.20;64.20
71188;DHT22;58893;53.130;8.158;2022-07-22T06:36:52;21.20;64.10
71188;DHT22;58893;53.130;8.158;2022-07-22T06:39:18;21.20;63.60
71188;DHT22;58893;53.130;8.158;2022-07-22T06:41:43;21.20;63.10
71188;DHT22;58893;53.130;8.158;2022-07-22T06:44:09;21.20;63.10
71188;DHT22;58893;53.130;8.158;2022-07-22T06:46:35;21.20;62.70
71188;DHT22;58893;53.130;8.158;2022-07-22T06:49:00;21.20;62.50
71188;DHT22;58893;53.130;8.158;2022-07-22T06:51:26;21.20;62.60
71188;DHT22;58893;53.130;8.158;2022-07-22T06:53:52;21.20;62.70
71188;DHT22;58893;53.130;8.158;2022-07-22T06:56:18;21.20;62.90
71188;DHT22;58893;53.130;8.158;2022-07-22T06:58:44;21.30;62.80
71188;DHT22;58893;53.130;8.158;2022-07-22T07:01:09;21.30;62.70
71188;DHT22;58893;53.130;8.158;2022-07-22T07:03:35;21.30;62.50
71188;DHT22;58893;53.130;8.158;2022-07-22T07:08:28;21.30;60.80
71188;DHT22;58893;53.130;8.158;2022-07-22T07:10:53;21.30;60.90
71188;DHT22;58893;53.130;8.158;2022-07-22T07:13:19;21.30;60.80
71188;DHT22;58893;53.130;8.158;2022-07-22T07:15:45;21.30;60.20
71188;DHT22;58893;53.130;8.158;2022-07-22T07:18:10;21.40;60.00
71188;DHT22;58893;53.130;8.158;2022-07-22T07:20:37;21.40;59.90
71188;DHT22;58893;53.130;8.158;2022-07-22T07:23:03;21.40;59.90
71188;DHT22;58893;53.130;8.158;2022-07-22T07:25:28;21.40;59.90
71188;DHT22;58893;53.130;8.158;2022-07-22T07:27:54;21.40;60.00
71188;DHT22;58893;53.130;8.158;2022-07-22T07:30:20;21.40;60.20
71188;DHT22;58893;53.130;8.158;2022-07-22T07:32:46;21.40;62.60
71188;DHT22;58893;53.130;8.158;2022-07-22T07:35:12;21.40;60.20
71188;DHT22;58893;53.130;8.158;2022-07-22T07:37:37;21.40;59.80
71188;DHT22;58893;53.130;8.158;2022-07-22T07:40:04;21.40;59.60
71188;DHT22;58893;53.130;8.158;2022-07-22T07:42:30;21.40;59.70
71188;DHT22;58893;53.130;8.158;2022-07-22T07:44:56;21.40;59.80
71188;DHT22;58893;53.130;8.158;2022-07-22T07:47:22;21.40;60.10
71188;DHT22;58893;53.130;8.158;2022-07-22T07:49:48;21.50;60.50
71188;DHT22;58893;53.130;8.158;2022-07-22T07:52:14;21.50;60.40
71188;DHT22;58893;53.130;8.158;2022-07-22T07:54:40;21.60;60.20
71188;DHT22;58893;53.130;8.158;2022-07-22T07:57:07;21.60;60.00
71188;DHT22;58893;53.130;8.158;2022-07-22T07:59:33;21.60;59.70
71188;DHT22;58893;53.130;8.158;2022-07-22T08:01:59;21.60;59.50
71188;DHT22;58893;53.130;8.158;2022-07-22T08:04:24;21.60;59.50
71188;DHT22;58893;53.130;8.158;2022-07-22T08:06:50;21.70;59.60
71188;DHT22;58893;53.130;8.158;2022-07-22T08:09:15;21.70;59.50
71188;DHT22;58893;53.130;8.158;2022-07-22T08:11:41;21.70;59.40
71188;DHT22;58893;53.130;8.158;2022-07-22T08:14:07;21.70;59.40
71188;DHT22;58893;53.130;8.158;2022-07-22T08:16:32;21.70;59.30
71188;DHT22;58893;53.130;8.158;2022-07-22T08:18:58;21.80;59.10
71188;DHT22;58893;53.130;8.158;2022-07-22T08:21:24;21.80;58.90
71188;DHT22;58893;53.130;8.158;2022-07-22T08:23:51;21.80;58.60
71188;DHT22;58893;53.130;8.158;2022-07-22T08:26:16;21.80;58.20
71188;DHT22;58893;53.130;8.158;2022-07-22T08:28:42;21.80;58.00
71188;DHT22;58893;53.130;8.158;2022-07-22T08:31:08;21.80;58.00
71188;DHT22;58893;53.130;8.158;2022-07-22T08:33:33;21.80;58.60
71188;DHT22;58893;53.130;8.158;2022-07-22T08:36:00;21.80;57.90
71188;DHT22;58893;53.130;8.158;2022-07-22T08:38:26;21.80;57.70
71188;DHT22;58893;53.130;8.158;2022-07-22T08:40:54;21.80;57.60
71188;DHT22;58893;53.130;8.158;2022-07-22T08:43:21;21.80;57.50
71188;DHT22;58893;53.130;8.158;2022-07-22T08:45:47;21.80;57.40
71188;DHT22;58893;53.130;8.158;2022-07-22T08:48:13;21.80;57.20
71188;DHT22;58893;53.130;8.158;2022-07-22T08:50:39;21.80;57.20
71188;DHT22;58893;53.130;8.158;2022-07-22T08:53:09;21.80;57.30
71188;DHT22;58893;53.130;8.158;2022-07-22T08:55:46;21.80;57.50
71188;DHT22;58893;53.130;8.158;2022-07-22T08:58:13;21.80;57.70
71188;DHT22;58893;53.130;8.158;2022-07-22T09:00:39;21.80;57.80
71188;DHT22;58893;53.130;8.158;2022-07-22T09:03:24;21.80;57.90
71188;DHT22;58893;53.130;8.158;2022-07-22T09:05:54;21.90;57.90
71188;DHT22;58893;53.130;8.158;2022-07-22T09:08:21;21.90;57.90
71188;DHT22;58893;53.130;8.158;2022-07-22T09:10:47;21.90;57.90
71188;DHT22;58893;53.130;8.158;2022-07-22T09:13:15;21.90;57.80
71188;DHT22;58893;53.130;8.158;2022-07-22T09:15:54;21.90;57.90
71188;DHT22;58893;53.130;8.158;2022-07-22T09:18:20;22.00;58.70
71188;DHT22;58893;53.130;8.158;2022-07-22T09:20:46;22.00;58.10
71188;DHT22;58893;53.130;8.158;2022-07-22T09:23:15;22.00;58.10
71188;DHT22;58893;53.130;8.158;2022-07-22T09:25:43;22.00;58.10
71188;DHT22;58893;53.130;8.158;2022-07-22T09:28:10;22.00;58.20
71188;DHT22;58893;53.130;8.158;2022-07-22T09:33:04;22.00;58.20
71188;DHT22;58893;53.130;8.158;2022-07-22T09:35:30;22.00;58.20
71188;DHT22;58893;53.130;8.158;2022-07-22T09:37:58;22.00;58.10
71188;DHT22;58893;53.130;8.158;2022-07-22T09:40:26;22.00;57.90
71188;DHT22;58893;53.130;8.158;2022-07-22T09:42:57;22.00;57.70
71188;DHT22;58893;53.130;8.158;2022-07-22T09:45:25;22.00;57.50
71188;DHT22;58893;53.130;8.158;2022-07-22T09:47:51;22.00;57.40
71188;DHT22;58893;53.130;8.158;2022-07-22T09:50:28;22.00;57.30
71188;DHT22;58893;53.130;8.158;2022-07-22T09:52:55;22.00;57.20
71188;DHT22;58893;53.130;8.158;2022-07-22T09:55:24;22.00;57.00
71188;DHT22;58893;53.130;8.158;2022-07-22T09:57:51;22.00;56.80
71188;DHT22;58893;53.130;8.158;2022-07-22T10:00:19;22.00;56.80
71188;DHT22;58893;53.130;8.158;2022-07-22T10:02:49;22.00;57.00
71188;DHT22;58893;53.130;8.158;2022-07-22T10:05:18;22.00;57.20
71188;DHT22;58893;53.130;8.158;2022-07-22T10:07:45;22.00;57.20
71188;DHT22;58893;53.130;8.158;2022-07-22T10:10:13;22.00;57.30
71188;DHT22;58893;53.130;8.158;2022-07-22T10:12:40;21.90;57.20
71188;DHT22;58893;53.130;8.158;2022-07-22T10:15:07;21.90;57.20
71188;DHT22;58893;53.130;8.158;2022-07-22T10:20:00;21.90;56.90
71188;DHT22;58893;53.130;8.158;2022-07-22T10:25:09;21.90;57.60
71188;DHT22;58893;53.130;8.158;2022-07-22T10:30:12;22.00;57.80
71188;DHT22;58893;53.130;8.158;2022-07-22T10:32:38;22.00;57.90
71188;DHT22;58893;53.130;8.158;2022-07-22T10:40:17;22.00;57.70
71188;DHT22;58893;53.130;8.158;2022-07-22T10:43:03;22.10;57.70
71188;DHT22;58893;53.130;8.158;2022-07-22T10:45:49;22.10;57.40
71188;DHT22;58893;53.130;8.158;2022-07-22T10:48:20;22.10;57.10
71188;DHT22;58893;53.130;8.158;2022-07-22T10:50:52;22.10;56.90
71188;DHT22;58893;53.130;8.158;2022-07-22T10:53:22;22.10;56.60
71188;DHT22;58893;53.130;8.158;2022-07-22T10:56:07;22.20;56.50
71188;DHT22;58893;53.130;8.158;2022-07-22T11:01:07;22.20;55.80
71188;DHT22;58893;53.130;8.158;2022-07-22T11:03:34;22.20;55.70
71188;DHT22;58893;53.130;8.158;2022-07-22T11:06:36;22.30;56.00
71188;DHT22;58893;53.130;8.158;2022-07-22T11:09:04;22.30;56.70
71188;DHT22;58893;53.130;8.158;2022-07-22T11:14:21;22.30;56.00
71188;DHT22;58893;53.130;8.158;2022-07-22T11:16:51;22.30;56.00
71188;DHT22;58893;53.130;8.158;2022-07-22T11:19:27;22.30;56.00
71188;DHT22;58893;53.130;8.158;2022-07-22T11:21:56;22.30;56.00
71188;DHT22;58893;53.130;8.158;2022-07-22T11:24:22;22.30;56.00
71188;DHT22;58893;53.130;8.158;2022-07-22T11:26:50;22.30;56.00
71188;DHT22;58893;53.130;8.158;2022-07-22T11:31:58;22.30;55.70
71188;DHT22;58893;53.130;8.158;2022-07-22T11:34:25;22.30;55.70
71188;DHT22;58893;53.130;8.158;2022-07-22T11:36:51;22.30;55.80
71188;DHT22;58893;53.130;8.158;2022-07-22T11:39:22;22.30;55.70
71188;DHT22;58893;53.130;8.158;2022-07-22T11:41:48;22.30;55.70
71188;DHT22;58893;53.130;8.158;2022-07-22T11:44:21;22.40;55.70
71188;DHT22;58893;53.130;8.158;2022-07-22T11:46:47;22.40;55.70
71188;DHT22;58893;53.130;8.158;2022-07-22T11:49:15;22.40;55.80
71188;DHT22;58893;53.130;8.158;2022-07-22T11:51:40;22.50;56.00
71188;DHT22;58893;53.130;8.158;2022-07-22T11:54:07;22.50;56.20
71188;DHT22;58893;53.130;8.158;2022-07-22T11:56:33;22.50;56.20
71188;DHT22;58893;53.130;8.158;2022-07-22T11:58:59;22.60;56.20
71188;DHT22;58893;53.130;8.158;2022-07-22T12:01:28;22.60;56.20
71188;DHT22;58893;53.130;8.158;2022-07-22T12:03:57;22.60;56.00
71188;DHT22;58893;53.130;8.158;2022-07-22T12:06:24;22.60;55.90
71188;DHT22;58893;53.130;8.158;2022-07-22T12:08:55;22.60;55.60
71188;DHT22;58893;53.130;8.158;2022-07-22T12:11:22;22.60;55.30
71188;DHT22;58893;53.130;8.158;2022-07-22T12:13:50;22.60;55.00
71188;DHT22;58893;53.130;8.158;2022-07-22T12:18:43;22.60;54.70
71188;DHT22;58893;53.130;8.158;2022-07-22T12:21:09;22.60;54.70
71188;DHT22;58893;53.130;8.158;2022-07-22T12:23:35;22.60;54.70
71188;DHT22;58893;53.130;8.158;2022-07-22T12:26:01;22.60;54.70
71188;DHT22;58893;53.130;8.158;2022-07-22T12:28:27;22.60;54.60
71188;DHT22;58893;53.130;8.158;2022-07-22T12:30:55;22.60;54.50
71188;DHT22;58893;53.130;8.158;2022-07-22T12:33:21;22.60;54.50
71188;DHT22;58893;53.130;8.158;2022-07-22T12:36:04;22.60;54.50
71188;DHT22;58893;53.130;8.158;2022-07-22T12:38:30;22.60;54.50
71188;DHT22;58893;53.130;8.158;2022-07-22T12:40:56;22.60;54.50
71188;DHT22;58893;53.130;8.158;2022-07-22T12:43:26;22.60;54.40
71188;DHT22;58893;53.130;8.158;2022-07-22T12:45:52;22.60;54.20
71188;DHT22;58893;53.130;8.158;2022-07-22T12:48:18;22.60;54.00
71188;DHT22;58893;53.130;8.158;2022-07-22T12:50:56;22.60;53.90
71188;DHT22;58893;53.130;8.158;2022-07-22T12:53:24;22.60;54.00
71188;DHT22;58893;53.130;8.158;2022-07-22T12:55:55;22.60;54.00
71188;DHT22;58893;53.130;8.158;2022-07-22T12:58:30;22.60;53.80
71188;DHT22;58893;53.130;8.158;2022-07-22T13:00:58;22.50;53.30
71188;DHT22;58893;53.130;8.158;2022-07-22T13:03:25;22.60;53.90
71188;DHT22;58893;53.130;8.158;2022-07-22T13:05:53;22.60;54.00
71188;DHT22;58893;53.130;8.158;2022-07-22T13:08:19;22.50;54.10
71188;DHT22;58893;53.130;8.158;2022-07-22T13:10:45;22.50;54.20
71188;DHT22;58893;53.130;8.158;2022-07-22T13:13:11;22.50;54.30
71188;DHT22;58893;53.130;8.158;2022-07-22T13:15:37;22.40;54.10
71188;DHT22;58893;53.130;8.158;2022-07-22T13:18:03;22.50;54.20
71188;DHT22;58893;53.130;8.158;2022-07-22T13:20:29;22.50;54.10
71188;DHT22;58893;53.130;8.158;2022-07-22T13:22:55;22.40;53.90
71188;DHT22;58893;53.130;8.158;2022-07-22T13:25:21;22.50;54.00
71188;DHT22;58893;53.130;8.158;2022-07-22T13:27:46;22.40;54.00
71188;DHT22;58893;53.130;8.158;2022-07-22T13:30:12;22.40;53.90
71188;DHT22;58893;53.130;8.158;2022-07-22T13:32:38;22.40;53.90
71188;DHT22;58893;53.130;8.158;2022-07-22T13:35:04;22.50;54.10
71188;DHT22;58893;53.130;8.158;2022-07-22T13:37:30;22.50;54.20
71188;DHT22;58893;53.130;8.158;2022-07-22T13:39:56;22.50;54.80
71188;DHT22;58893;53.130;8.158;2022-07-22T13:42:21;22.40;54.00
71188;DHT22;58893;53.130;8.158;2022-07-22T13:44:48;22.50;53.60
71188;DHT22;58893;53.130;8.158;2022-07-22T13:47:14;22.50;53.30
71188;DHT22;58893;53.130;8.158;2022-07-22T13:49:40;22.50;53.10
71188;DHT22;58893;53.130;8.158;2022-07-22T13:52:06;22.50;52.90
71188;DHT22;58893;53.130;8.158;2022-07-22T13:54:32;22.50;52.80
71188;DHT22;58893;53.130;8.158;2022-07-22T13:56:59;22.50;53.30
71188;DHT22;58893;53.130;8.158;2022-07-22T13:59:26;22.50;52.60
71188;DHT22;58893;53.130;8.158;2022-07-22T14:01:52;22.50;53.00
71188;DHT22;58893;53.130;8.158;2022-07-22T14:04:18;22.50;52.70
71188;DHT22;58893;53.130;8.158;2022-07-22T14:06:44;22.60;52.80
71188;DHT22;58893;53.130;8.158;2022-07-22T14:09:09;22.60;52.90
71188;DHT22;58893;53.130;8.158;2022-07-22T14:11:35;22.60;52.90
71188;DHT22;58893;53.130;8.158;2022-07-22T14:14:01;22.50;52.60
71188;DHT22;58893;53.130;8.158;2022-07-22T14:16:26;22.60;54.00
71188;DHT22;58893;53.130;8.158;2022-07-22T14:19:03;22.50;53.80
71188;DHT22;58893;53.130;8.158;2022-07-22T14:21:28;22.60;52.10
71188;DHT22;58893;53.130;8.158;2022-07-22T14:23:54;22.60;52.00
71188;DHT22;58893;53.130;8.158;2022-07-22T14:26:20;22.60;52.00
71188;DHT22;58893;53.130;8.158;2022-07-22T14:28:45;22.60;52.00
71188;DHT22;58893;53.130;8.158;2022-07-22T14:31:11;22.60;52.00
71188;DHT22;58893;53.130;8.158;2022-07-22T14:33:37;22.60;52.20
71188;DHT22;58893;53.130;8.158;2022-07-22T14:36:02;22.60;52.30
71188;DHT22;58893;53.130;8.158;2022-07-22T14:38:28;22.60;52.30
71188;DHT22;58893;53.130;8.158;2022-07-22T14:40:54;22.60;56.20
71188;DHT22;58893;53.130;8.158;2022-07-22T14:43:19;22.60;52.90
71188;DHT22;58893;53.130;8.158;2022-07-22T14:45:45;22.60;52.30
71188;DHT22;58893;53.130;8.158;2022-07-22T14:48:10;22.60;52.20
71188;DHT22;58893;53.130;8.158;2022-07-22T14:50:36;22.60;52.10
71188;DHT22;58893;53.130;8.158;2022-07-22T14:53:01;22.60;52.10
71188;DHT22;58893;53.130;8.158;2022-07-22T14:55:27;22.60;51.90
71188;DHT22;58893;53.130;8.158;2022-07-22T14:57:53;22.60;51.90
71188;DHT22;58893;53.130;8.158;2022-07-22T15:00:18;22.60;51.90
71188;DHT22;58893;53.130;8.158;2022-07-22T15:02:44;22.60;52.00
71188;DHT22;58893;53.130;8.158;2022-07-22T15:05:10;22.60;52.00
71188;DHT22;58893;53.130;8.158;2022-07-22T15:07:35;22.60;52.10
71188;DHT22;58893;53.130;8.158;2022-07-22T15:10:01;22.60;52.20
71188;DHT22;58893;53.130;8.158;2022-07-22T15:12:27;22.60;52.30
71188;DHT22;58893;53.130;8.158;2022-07-22T15:14:52;22.60;54.20
71188;DHT22;58893;53.130;8.158;2022-07-22T15:17:18;23.40;58.30
71188;DHT22;58893;53.130;8.158;2022-07-22T15:19:44;22.70;52.00
71188;DHT22;58893;53.130;8.158;2022-07-22T15:22:09;22.60;52.00
71188;DHT22;58893;53.130;8.158;2022-07-22T15:24:35;22.60;51.80
71188;DHT22;58893;53.130;8.158;2022-07-22T15:27:01;22.70;51.70
71188;DHT22;58893;53.130;8.158;2022-07-22T15:29:26;22.60;51.40
71188;DHT22;58893;53.130;8.158;2022-07-22T15:31:52;22.70;51.40
71188;DHT22;58893;53.130;8.158;2022-07-22T15:34:18;22.60;51.20
71188;DHT22;58893;53.130;8.158;2022-07-22T15:36:44;22.60;51.20
71188;DHT22;58893;53.130;8.158;2022-07-22T15:39:10;22.60;51.80
71188;DHT22;58893;53.130;8.158;2022-07-22T15:41:36;22.60;51.40
71188;DHT22;58893;53.130;8.158;2022-07-22T15:44:05;22.60;51.30
71188;DHT22;58893;53.130;8.158;2022-07-22T15:46:30;22.60;51.30
71188;DHT22;58893;53.130;8.158;2022-07-22T15:48:56;22.50;51.40
71188;DHT22;58893;53.130;8.158;2022-07-22T15:53:48;22.50;51.20
71188;DHT22;58893;53.130;8.158;2022-07-22T15:56:14;22.50;51.90
71188;DHT22;58893;53.130;8.158;2022-07-22T15:58:40;22.10;55.80
71188;DHT22;58893;53.130;8.158;2022-07-22T16:01:24;22.50;57.30